createdAt,value
2022-08-26T00:02:13.595Z,11.15
2022-08-26T00:04:43.779Z,11.52
2022-08-26T00:07:12.171Z,12.48
2022-08-26T00:09:40.573Z,11.13
2022-08-26T00:12:09.375Z,7.13
2022-08-26T00:14:40.937Z,8.88
2022-08-26T00:17:11.022Z,12.07
2022-08-26T00:19:39.407Z,9.10
2022-08-26T00:22:08.758Z,14.38
2022-08-26T00:24:37.245Z,15.02
2022-08-26T00:27:06.499Z,11.00
2022-08-26T00:29:37.502Z,13.70
2022-08-26T00:32:06.680Z,13.38
2022-08-26T00:34:36.859Z,12.73
2022-08-26T00:37:09.404Z,15.07
2022-08-26T00:39:38.841Z,17.08
2022-08-26T00:42:07.605Z,18.15
2022-08-26T00:44:35.969Z,15.98
2022-08-26T00:47:06.021Z,20.52
2022-08-26T00:49:39.656Z,14.88
2022-08-26T00:52:09.863Z,17.55
2022-08-26T00:54:45.263Z,17.85
2022-08-26T00:57:16.301Z,19.80
2022-08-26T00:59:46.471Z,22.38
2022-08-26T01:02:20.078Z,17.17
2022-08-26T01:04:55.876Z,19.20
2022-08-26T01:07:26.159Z,21.02
2022-08-26T01:09:55.458Z,29.73
2022-08-26T01:12:23.929Z,26.27
2022-08-26T01:14:53.782Z,23.42
2022-08-26T01:17:22.294Z,32.67
2022-08-26T01:19:54.243Z,28.98
2022-08-26T01:22:26.703Z,28.90
2022-08-26T01:24:58.645Z,29.52
2022-08-26T01:27:32.534Z,35.53
2022-08-26T01:30:02.081Z,43.22
2022-08-26T01:32:31.533Z,41.65
2022-08-26T01:35:00.509Z,44.90
2022-08-26T01:37:31.336Z,43.25
2022-08-26T01:40:01.166Z,45.20
2022-08-26T01:42:30.084Z,46.70
2022-08-26T01:45:01.674Z,47.08
2022-08-26T01:47:31.611Z,45.47
2022-08-26T01:50:02.843Z,47.63
2022-08-26T01:52:32.132Z,48.95
2022-08-26T01:55:01.958Z,48.63
2022-08-26T01:57:30.906Z,46.85
2022-08-26T02:00:00.532Z,50.40
2022-08-26T02:02:29.271Z,46.58
2022-08-26T02:05:00.076Z,51.47
2022-08-26T02:07:28.707Z,49.28
2022-08-26T02:09:57.327Z,49.90
2022-08-26T02:12:27.858Z,50.42
2022-08-26T02:14:58.315Z,48.83
2022-08-26T02:17:28.161Z,49.47
2022-08-26T02:19:57.352Z,50.20
2022-08-26T02:22:26.391Z,54.35
2022-08-26T02:24:55.906Z,50.17
2022-08-26T02:27:25.652Z,51.78
2022-08-26T02:29:59.539Z,49.95
2022-08-26T02:32:29.724Z,50.20
2022-08-26T02:34:58.360Z,52.53
2022-08-26T02:37:30.128Z,45.80
2022-08-26T02:39:58.618Z,48.35
2022-08-26T02:42:27.118Z,45.97
2022-08-26T02:44:55.726Z,49.25
2022-08-26T02:47:25.657Z,45.95
2022-08-26T02:49:57.629Z,46.40
2022-08-26T02:52:26.027Z,45.25
2022-08-26T02:54:56.663Z,44.97
2022-08-26T02:57:25.115Z,49.50
2022-08-26T02:59:53.538Z,50.03
2022-08-26T03:02:22.150Z,52.15
2022-08-26T03:04:57.513Z,50.72
2022-08-26T03:07:29.153Z,50.35
2022-08-26T03:09:58.170Z,50.45
2022-08-26T03:12:26.592Z,52.17
2022-08-26T03:14:55.016Z,47.30
2022-08-26T03:17:23.546Z,55.05
2022-08-26T03:19:57.346Z,59.53
2022-08-26T03:22:26.291Z,59.30
2022-08-26T03:24:55.586Z,58.08
2022-08-26T03:27:23.973Z,55.00
2022-08-26T03:30:11.753Z,56.83
2022-08-26T03:32:41.474Z,52.85
2022-08-26T03:35:11.474Z,47.38
2022-08-26T03:37:40.403Z,42.17
2022-08-26T03:40:10.447Z,45.30
2022-08-26T03:42:39.395Z,40.03
2022-08-26T03:45:08.310Z,38.03
2022-08-26T03:47:36.732Z,36.45
2022-08-26T03:50:06.977Z,39.22
2022-08-26T03:52:39.659Z,36.75
2022-08-26T03:55:12.447Z,37.08
2022-08-26T03:57:40.856Z,40.22
2022-08-26T04:00:13.723Z,39.05
2022-08-26T04:02:43.987Z,42.85
2022-08-26T04:05:13.624Z,42.63
2022-08-26T04:07:43.774Z,43.63
2022-08-26T04:10:13.459Z,38.00
2022-08-26T04:12:43.697Z,37.92
2022-08-26T04:15:13.089Z,35.78
2022-08-26T04:17:42.633Z,37.13
2022-08-26T04:20:13.894Z,32.13
2022-08-26T04:22:46.350Z,34.88
2022-08-26T04:25:15.163Z,35.03
2022-08-26T04:27:43.555Z,33.20
2022-08-26T04:30:12.912Z,34.50
2022-08-26T04:32:41.549Z,34.38
2022-08-26T04:35:10.447Z,34.15
2022-08-26T04:37:38.834Z,31.52
2022-08-26T04:40:12.980Z,30.23
2022-08-26T04:42:41.456Z,34.63
2022-08-26T04:45:11.630Z,31.20
2022-08-26T04:47:40.458Z,33.55
2022-08-26T04:50:11.011Z,32.65
2022-08-26T04:52:39.516Z,32.35
2022-08-26T04:55:08.761Z,31.95
2022-08-26T04:57:38.700Z,34.20
2022-08-26T05:00:10.066Z,34.40
2022-08-26T05:02:39.536Z,32.53
2022-08-26T05:05:09.233Z,30.83
2022-08-26T05:07:38.178Z,34.05
2022-08-26T05:10:08.870Z,32.83
2022-08-26T05:12:38.763Z,32.45
2022-08-26T05:15:08.737Z,36.70
2022-08-26T05:17:37.157Z,34.85
2022-08-26T05:20:07.228Z,34.55
2022-08-26T05:22:35.634Z,36.75
2022-08-26T05:25:04.223Z,34.75
2022-08-26T05:27:32.602Z,35.03
2022-08-26T05:30:02.684Z,31.35
2022-08-26T05:32:32.557Z,32.72
2022-08-26T05:35:00.931Z,33.92
2022-08-26T05:37:29.751Z,32.25
2022-08-26T05:39:59.628Z,31.08
2022-08-26T05:42:28.549Z,31.55
2022-08-26T05:44:57.262Z,31.17
2022-08-26T05:47:27.470Z,30.33
2022-08-26T05:49:56.099Z,34.35
2022-08-26T05:52:24.667Z,31.58
2022-08-26T05:54:54.515Z,29.50
2022-08-26T05:57:23.191Z,27.50
2022-08-26T05:59:52.278Z,28.52
2022-08-26T06:02:21.252Z,28.80
2022-08-26T06:04:51.626Z,27.75
2022-08-26T06:07:40.413Z,32.42
2022-08-26T06:10:31.187Z,25.23
2022-08-26T06:12:57.627Z,27.85
2022-08-26T06:15:26.006Z,25.13
2022-08-26T06:17:54.428Z,26.60
2022-08-26T06:20:24.180Z,24.45
2022-08-26T06:23:12.244Z,25.15
2022-08-26T06:25:41.921Z,21.88
2022-08-26T06:28:13.487Z,23.02
2022-08-26T06:30:42.721Z,24.40
2022-08-26T06:33:11.125Z,31.55
2022-08-26T06:35:42.157Z,22.75
2022-08-26T06:38:11.310Z,24.67
2022-08-26T06:40:42.426Z,24.48
2022-08-26T06:43:11.587Z,24.88
2022-08-26T06:45:40.348Z,23.45
2022-08-26T06:48:09.824Z,20.55
2022-08-26T06:50:38.207Z,22.35
2022-08-26T06:53:08.722Z,24.90
2022-08-26T06:55:41.512Z,28.52
2022-08-26T06:58:10.722Z,26.98
2022-08-26T07:00:39.647Z,25.20
2022-08-26T07:03:10.538Z,26.45
2022-08-26T07:05:39.087Z,26.77
2022-08-26T07:08:08.832Z,29.00
2022-08-26T07:10:37.964Z,27.98
2022-08-26T07:13:08.064Z,29.13
2022-08-26T07:15:37.106Z,26.48
2022-08-26T07:18:05.659Z,25.90
2022-08-26T07:20:34.298Z,25.27
2022-08-26T07:23:02.689Z,25.20
2022-08-26T07:25:32.470Z,21.20
2022-08-26T07:28:01.518Z,21.80
2022-08-26T07:30:31.779Z,23.38
2022-08-26T07:33:00.520Z,23.88
2022-08-26T07:35:29.424Z,27.73
2022-08-26T07:37:57.854Z,26.08
2022-08-26T07:40:26.408Z,22.65
2022-08-26T07:42:56.572Z,20.70
2022-08-26T07:45:25.241Z,19.45
2022-08-26T07:47:54.695Z,18.52
2022-08-26T07:50:48.849Z,19.48
2022-08-26T07:53:12.472Z,19.23
2022-08-26T07:55:43.125Z,16.98
2022-08-26T07:58:13.093Z,16.38
2022-08-26T08:00:41.508Z,18.05
2022-08-26T08:03:10.261Z,17.60
2022-08-26T08:05:41.229Z,15.95
2022-08-26T08:08:26.761Z,13.57
2022-08-26T08:10:56.868Z,16.73
2022-08-26T08:13:26.668Z,15.10
2022-08-26T08:15:55.381Z,14.48
2022-08-26T08:18:24.219Z,16.98
2022-08-26T08:21:04.814Z,14.95
2022-08-26T08:23:39.676Z,13.88
2022-08-26T08:26:09.469Z,11.52
2022-08-26T08:28:39.938Z,13.20
2022-08-26T08:31:10.155Z,11.98
2022-08-26T08:33:38.735Z,14.70
2022-08-26T08:36:07.822Z,11.00
2022-08-26T08:38:37.791Z,12.98
2022-08-26T08:41:06.410Z,10.05
2022-08-26T08:43:40.582Z,10.30
2022-08-26T08:46:12.910Z,15.07
2022-08-26T08:48:43.583Z,11.27
2022-08-26T08:51:17.756Z,11.35
2022-08-26T08:53:47.769Z,13.07
2022-08-26T08:56:23.675Z,10.05
2022-08-26T08:58:56.798Z,11.68
2022-08-26T09:01:37.348Z,8.35
2022-08-26T09:04:12.728Z,11.02
2022-08-26T09:06:46.782Z,11.32
2022-08-26T09:09:19.786Z,13.32
2022-08-26T09:11:48.415Z,13.13
2022-08-26T09:14:17.767Z,11.77
2022-08-26T09:16:52.564Z,11.35
2022-08-26T09:19:24.196Z,8.50
2022-08-26T09:21:57.386Z,9.45
2022-08-26T09:24:28.908Z,10.77
2022-08-26T09:26:58.987Z,11.73
2022-08-26T09:29:28.496Z,17.35
2022-08-26T09:32:16.028Z,15.05
2022-08-26T09:34:55.205Z,18.63
2022-08-26T09:37:35.502Z,16.92
2022-08-26T09:40:22.477Z,13.63
2022-08-26T09:43:07.670Z,17.45
2022-08-26T09:45:36.497Z,22.92
2022-08-26T09:48:05.109Z,21.42
2022-08-26T09:50:36.061Z,17.80
2022-08-26T09:53:09.905Z,14.65
2022-08-26T09:55:43.023Z,13.40
2022-08-26T09:58:14.904Z,16.08
2022-08-26T10:00:44.129Z,14.80
2022-08-26T10:03:15.684Z,14.77
2022-08-26T10:05:48.567Z,15.82
2022-08-26T10:08:19.176Z,21.83
2022-08-26T10:10:47.927Z,21.00
2022-08-26T10:13:24.484Z,21.40
2022-08-26T10:15:58.120Z,15.95
2022-08-26T10:18:34.259Z,15.13
2022-08-26T10:21:09.242Z,16.52
2022-08-26T10:26:12.454Z,12.73
2022-08-26T10:28:44.243Z,16.10
2022-08-26T10:31:20.357Z,15.32
2022-08-26T10:34:00.064Z,13.13
2022-08-26T10:39:43.864Z,14.02
2022-08-26T10:42:18.012Z,14.63
2022-08-26T10:44:47.637Z,12.82
2022-08-26T10:47:19.641Z,11.13
2022-08-26T10:49:49.290Z,7.32
2022-08-26T10:52:23.599Z,15.77
2022-08-26T10:55:01.931Z,14.27
2022-08-26T10:57:40.823Z,17.08
2022-08-26T11:00:25.339Z,15.20
2022-08-26T11:02:58.934Z,15.10
2022-08-26T11:05:27.412Z,15.07
2022-08-26T11:08:17.214Z,12.30
2022-08-26T11:10:58.846Z,11.07
2022-08-26T11:13:42.362Z,11.65
2022-08-26T11:16:11.581Z,10.45
2022-08-26T11:18:48.692Z,10.80
2022-08-26T11:21:47.729Z,8.68
2022-08-26T11:24:36.934Z,8.65
2022-08-26T11:27:06.744Z,11.90
2022-08-26T11:29:57.646Z,7.10
2022-08-26T11:32:28.563Z,7.80
2022-08-26T11:34:58.339Z,7.50
2022-08-26T11:37:32.423Z,9.63
2022-08-26T11:40:03.169Z,11.10
2022-08-26T11:42:37.570Z,10.90
2022-08-26T11:45:15.438Z,8.73
2022-08-26T11:47:43.819Z,11.80
2022-08-26T11:50:15.300Z,11.07
2022-08-26T11:52:52.079Z,9.90
2022-08-26T11:55:23.474Z,8.90
2022-08-26T11:57:55.828Z,9.82
2022-08-26T12:00:26.671Z,9.90
2022-08-26T12:02:55.765Z,8.55
2022-08-26T12:05:26.808Z,7.55
2022-08-26T12:08:01.423Z,7.93
2022-08-26T12:10:31.226Z,7.32
2022-08-26T12:13:02.197Z,6.80
2022-08-26T12:15:32.342Z,6.65
2022-08-26T12:18:20.534Z,9.20
2022-08-26T12:20:57.247Z,10.70
2022-08-26T12:23:26.975Z,10.10
2022-08-26T12:26:04.914Z,10.90
2022-08-26T12:28:34.983Z,5.68
2022-08-26T12:31:04.465Z,7.57
2022-08-26T12:33:33.933Z,10.15
2022-08-26T12:36:02.428Z,6.55
2022-08-26T12:38:33.910Z,10.02
2022-08-26T12:41:02.613Z,6.78
2022-08-26T12:43:45.941Z,6.65
2022-08-26T12:46:15.490Z,7.97
2022-08-26T12:48:45.762Z,6.38
2022-08-26T12:51:21.846Z,10.18
2022-08-26T12:53:50.317Z,6.80
2022-08-26T12:56:36.937Z,10.50
2022-08-26T12:59:10.270Z,9.32
2022-08-26T13:01:43.048Z,7.57
2022-08-26T13:04:26.407Z,12.63
2022-08-26T13:07:09.626Z,8.30
2022-08-26T13:09:38.490Z,6.55
2022-08-26T13:12:07.106Z,10.68
2022-08-26T13:14:36.863Z,7.55
2022-08-26T13:17:05.441Z,8.48
2022-08-26T13:19:33.841Z,7.25
2022-08-26T13:22:02.365Z,8.23
2022-08-26T13:24:32.874Z,10.85
2022-08-26T13:27:01.707Z,6.28
2022-08-26T13:29:30.140Z,9.60
2022-08-26T13:32:00.828Z,7.28
2022-08-26T13:34:29.661Z,7.25
2022-08-26T13:36:58.919Z,8.50
2022-08-26T13:39:27.543Z,6.85
2022-08-26T13:41:55.972Z,5.72
2022-08-26T13:44:24.443Z,6.25
2022-08-26T13:46:52.843Z,8.20
2022-08-26T13:49:22.616Z,7.20
2022-08-26T13:51:51.054Z,5.43
2022-08-26T13:54:20.010Z,8.45
2022-08-26T13:56:48.453Z,6.97
2022-08-26T13:59:17.261Z,8.73
2022-08-26T14:01:45.683Z,6.85
2022-08-26T14:04:14.054Z,6.32
2022-08-26T14:06:43.842Z,5.30
2022-08-26T14:09:13.548Z,9.82
2022-08-26T14:11:54.599Z,5.82
2022-08-26T14:14:23.805Z,7.25
2022-08-26T14:16:59.389Z,7.75
2022-08-26T14:19:28.393Z,6.28
2022-08-26T14:21:58.854Z,6.50
2022-08-26T14:24:27.225Z,6.15
2022-08-26T14:26:55.625Z,6.90
2022-08-26T14:29:24.018Z,5.05
2022-08-26T14:31:52.756Z,7.85
2022-08-26T14:34:21.166Z,5.28
2022-08-26T14:36:49.774Z,5.50
2022-08-26T14:39:19.523Z,6.35
2022-08-26T14:41:54.711Z,7.28
2022-08-26T14:44:23.927Z,11.95
2022-08-26T14:46:52.914Z,6.15
2022-08-26T14:49:21.650Z,5.57
2022-08-26T14:51:50.034Z,7.55
2022-08-26T14:54:20.177Z,5.22
2022-08-26T14:56:50.148Z,6.07
2022-08-26T14:59:20.793Z,3.45
2022-08-26T15:01:49.607Z,8.57
2022-08-26T15:04:18.053Z,7.90
2022-08-26T15:06:46.677Z,5.30
2022-08-26T15:09:15.767Z,9.07
2022-08-26T15:11:47.673Z,8.70
2022-08-26T15:14:19.697Z,9.55
2022-08-26T15:16:48.865Z,4.30
2022-08-26T15:19:17.436Z,5.18
2022-08-26T15:21:47.179Z,7.47
2022-08-26T15:24:15.940Z,9.27
2022-08-26T15:26:46.707Z,5.93
2022-08-26T15:29:15.143Z,9.38
2022-08-26T15:31:43.580Z,6.38
2022-08-26T15:34:16.509Z,6.05
2022-08-26T15:36:46.010Z,8.20
2022-08-26T15:39:14.985Z,7.63
2022-08-26T15:41:43.393Z,10.35
2022-08-26T15:44:14.005Z,8.20
2022-08-26T15:46:42.988Z,6.60
2022-08-26T15:49:16.917Z,5.95
2022-08-26T15:51:47.817Z,5.60
2022-08-26T15:54:17.144Z,7.68
2022-08-26T15:56:47.328Z,10.23
2022-08-26T15:59:18.185Z,11.20
2022-08-26T16:01:47.024Z,5.30
2022-08-26T16:04:15.467Z,5.45
2022-08-26T16:06:44.192Z,8.30
2022-08-26T16:09:12.858Z,5.32
2022-08-26T16:11:41.249Z,4.18
2022-08-26T16:14:09.781Z,6.97
2022-08-26T16:16:40.740Z,4.20
2022-08-26T16:19:09.572Z,7.15
2022-08-26T16:21:38.611Z,5.70
2022-08-26T16:24:07.547Z,6.45
2022-08-26T16:26:36.729Z,5.40
2022-08-26T16:29:08.678Z,7.68
2022-08-26T16:31:38.372Z,6.60
2022-08-26T16:34:08.569Z,5.57
2022-08-26T16:36:37.309Z,5.40
2022-08-26T16:39:06.847Z,7.53
2022-08-26T16:41:35.358Z,5.95
2022-08-26T16:44:04.148Z,10.50
2022-08-26T16:46:32.692Z,4.60
2022-08-26T16:49:03.733Z,7.22
2022-08-26T16:51:37.725Z,7.13
2022-08-26T16:54:07.069Z,4.43
2022-08-26T16:56:35.640Z,6.78
2022-08-26T16:59:04.609Z,5.03
2022-08-26T17:01:33.062Z,9.25
2022-08-26T17:04:01.630Z,8.25
2022-08-26T17:06:30.809Z,7.45
2022-08-26T17:09:00.597Z,6.35
2022-08-26T17:11:28.983Z,8.60
2022-08-26T17:13:57.528Z,6.47
2022-08-26T17:16:27.148Z,6.95
2022-08-26T17:18:57.599Z,6.45
2022-08-26T17:21:26.560Z,4.82
2022-08-26T17:23:55.276Z,6.47
2022-08-26T17:26:25.362Z,5.68
2022-08-26T17:28:54.003Z,10.75
2022-08-26T17:31:23.307Z,7.10
2022-08-26T17:33:53.749Z,6.78
2022-08-26T17:36:22.957Z,4.53
2022-08-26T17:38:56.149Z,5.32
2022-08-26T17:41:26.199Z,6.63
2022-08-26T17:43:54.601Z,7.63
2022-08-26T17:46:23.289Z,5.00
2022-08-26T17:48:51.991Z,7.80
2022-08-26T17:51:20.461Z,5.78
2022-08-26T17:53:49.282Z,5.55
2022-08-26T17:56:19.093Z,4.22
2022-08-26T17:58:51.260Z,5.90
2022-08-26T18:01:20.401Z,4.78
2022-08-26T18:03:48.991Z,5.47
2022-08-26T18:06:17.419Z,2.75
2022-08-26T18:08:46.108Z,5.75
2022-08-26T18:11:15.393Z,6.55
2022-08-26T18:13:47.125Z,4.03
2022-08-26T18:16:17.975Z,8.75
2022-08-26T18:18:46.828Z,5.32
2022-08-26T18:21:16.718Z,6.85
2022-08-26T18:23:45.317Z,5.70
2022-08-26T18:26:17.216Z,5.25
2022-08-26T18:28:45.693Z,3.75
2022-08-26T18:31:15.345Z,7.95
2022-08-26T18:33:45.667Z,4.55
2022-08-26T18:36:18.444Z,7.72
2022-08-26T18:38:46.995Z,7.25
2022-08-26T18:41:15.424Z,6.25
2022-08-26T18:43:43.863Z,7.72
2022-08-26T18:46:12.565Z,4.35
2022-08-26T18:48:41.765Z,3.95
2022-08-26T18:51:17.020Z,4.63
2022-08-26T18:53:45.534Z,6.15
2022-08-26T18:56:16.626Z,4.45
2022-08-26T18:58:47.010Z,5.60
2022-08-26T19:01:15.792Z,6.13
2022-08-26T19:03:44.544Z,6.43
2022-08-26T19:06:16.996Z,6.30
2022-08-26T19:08:46.145Z,4.20
2022-08-26T19:11:32.295Z,7.82
2022-08-26T19:14:06.592Z,4.57
2022-08-26T19:16:35.444Z,4.32
2022-08-26T19:19:03.905Z,6.00
2022-08-26T19:21:34.259Z,5.55
2022-08-26T19:24:03.592Z,5.18
2022-08-26T19:26:33.235Z,3.65
2022-08-26T19:29:01.982Z,6.00
2022-08-26T19:31:33.460Z,5.63
2022-08-26T19:34:01.963Z,4.00
2022-08-26T19:36:31.237Z,6.35
2022-08-26T19:39:05.000Z,5.93
2022-08-26T19:41:37.919Z,7.28
2022-08-26T19:44:08.379Z,4.20
2022-08-26T19:49:10.791Z,10.10
2022-08-26T19:51:39.217Z,4.15
2022-08-26T19:54:09.037Z,7.97
2022-08-26T19:56:37.688Z,7.13
2022-08-26T19:59:06.127Z,6.45
2022-08-26T20:01:34.672Z,4.95
2022-08-26T20:04:03.342Z,6.05
2022-08-26T20:06:32.303Z,4.97
2022-08-26T20:09:00.704Z,4.25
2022-08-26T20:11:31.150Z,4.35
2022-08-26T20:13:59.737Z,6.90
2022-08-26T20:16:28.181Z,7.68
2022-08-26T20:19:14.424Z,5.07
2022-08-26T20:21:42.987Z,11.63
2022-08-26T20:24:12.519Z,10.35
2022-08-26T20:26:43.499Z,4.90
2022-08-26T20:29:13.284Z,5.10
2022-08-26T20:31:42.343Z,5.80
2022-08-26T20:34:10.797Z,6.05
2022-08-26T20:36:40.344Z,5.88
2022-08-26T20:39:09.132Z,4.88
2022-08-26T20:41:37.566Z,6.68
2022-08-26T20:44:08.166Z,3.85
2022-08-26T20:46:37.252Z,5.45
2022-08-26T20:49:06.032Z,6.03
2022-08-26T20:51:37.368Z,6.05
2022-08-26T20:54:07.031Z,3.92
2022-08-26T20:56:35.907Z,4.28
2022-08-26T20:59:04.969Z,5.53
2022-08-26T21:01:35.907Z,7.43
2022-08-26T21:04:05.800Z,3.55
2022-08-26T21:06:34.937Z,5.20
2022-08-26T21:09:03.775Z,6.47
2022-08-26T21:11:32.654Z,5.35
2022-08-26T21:14:06.984Z,5.82
2022-08-26T21:16:46.760Z,6.05
2022-08-26T21:19:17.603Z,7.88
2022-08-26T21:21:46.761Z,3.15
2022-08-26T21:24:15.612Z,5.25
2022-08-26T21:26:44.790Z,5.22
2022-08-26T21:29:13.802Z,3.83
2022-08-26T21:31:46.203Z,3.90
2022-08-26T21:34:16.959Z,6.45
2022-08-26T21:36:45.543Z,4.72
2022-08-26T21:39:14.402Z,7.28
2022-08-26T21:41:42.877Z,6.38
2022-08-26T21:44:11.867Z,5.32
2022-08-26T21:46:40.559Z,5.13
2022-08-26T21:49:11.837Z,10.18
2022-08-26T21:51:42.855Z,4.80
2022-08-26T21:54:12.172Z,7.43
2022-08-26T21:56:41.974Z,5.35
2022-08-26T21:59:10.906Z,6.22
2022-08-26T22:01:39.285Z,5.78
2022-08-26T22:04:08.615Z,5.03
2022-08-26T22:06:40.943Z,8.05
2022-08-26T22:09:10.772Z,4.85
2022-08-26T22:11:39.154Z,4.85
2022-08-26T22:14:07.608Z,7.55
2022-08-26T22:16:36.064Z,4.28
2022-08-26T22:19:04.496Z,4.43
2022-08-26T22:21:33.395Z,6.00
2022-08-26T22:24:01.869Z,4.93
2022-08-26T22:26:32.702Z,4.47
2022-08-26T22:29:01.762Z,7.85
2022-08-26T22:31:37.631Z,5.03
2022-08-26T22:34:07.887Z,8.00
2022-08-26T22:36:39.776Z,8.95
2022-08-26T22:39:12.076Z,9.02
2022-08-26T22:41:42.039Z,8.70
2022-08-26T22:44:10.582Z,5.70
2022-08-26T22:46:39.101Z,6.20
2022-08-26T22:49:07.528Z,5.90
2022-08-26T22:51:35.923Z,6.00
2022-08-26T22:54:04.715Z,3.92
2022-08-26T22:56:33.056Z,6.30
2022-08-26T22:59:04.128Z,6.45
2022-08-26T23:01:32.561Z,5.80
2022-08-26T23:04:01.194Z,7.55
2022-08-26T23:06:29.790Z,7.72
2022-08-26T23:08:58.162Z,5.45
2022-08-26T23:11:26.594Z,8.02
2022-08-26T23:13:54.994Z,12.55
2022-08-26T23:16:24.932Z,6.78
2022-08-26T23:18:53.394Z,7.88
2022-08-26T23:21:21.768Z,8.20
2022-08-26T23:23:50.423Z,8.20
2022-08-26T23:26:18.774Z,7.65
2022-08-26T23:28:47.166Z,8.73
2022-08-26T23:31:15.605Z,9.88
2022-08-26T23:34:03.081Z,10.20
2022-08-26T23:36:31.857Z,9.10
2022-08-26T23:39:03.522Z,10.05
2022-08-26T23:41:32.246Z,6.63
2022-08-26T23:44:03.545Z,9.80
2022-08-26T23:46:32.217Z,7.78
2022-08-26T23:49:02.106Z,8.15
2022-08-26T23:51:48.255Z,8.38
2022-08-26T23:54:17.067Z,8.25
2022-08-26T23:56:45.575Z,9.73
2022-08-26T23:59:13.991Z,8.85
